Terminal Aerodrome Forecast
Issued by NWS Portland, ME

Home | Current Version | Previous Version | Text Only | Print | Product List | Glossary On
Versions: 1 2 3 4 5 6 7 8 9 10 11 12 13 14 15 16 17 18 19 20 21 22 23 24 25 26 27 28 29 30 31 32 33 34 35
064
FTUS41 KGYX 060003 AAA
TAFPWM
TAF AMD
KPWM 060003Z 0600/0624 32014G22KT P6SM SCT100
     FM060200 30007KT P6SM SCT120
     FM061400 22005KT P6SM SCT250
     FM061700 22009KT P6SM SCT050 BKN200=

USA.gov is the U.S. government's official web portal to all federal, state and local government web resources and services.